Aviation Digital Data Service (ADDS)

Output produced by METARs form (1252 UTC 24 January 2021)
found at http://www.aviationweather.gov/metar/data/
 
METAR text: EBCI 241220Z 19008KT 9999 SCT024 01/M01 Q1000 R24/290095 NOSIG
Conditions at: EBCI (CHARLEROI/GOSSEL, BE) observed 1220 UTC 24 January 2021
Temperature: 1.0°C (34°F)
Dewpoint: -1.0°C (30°F) [RH = 86%]
Pressure (altimeter): 29.53 inches Hg (1000.0 mb)
Winds: from the S (190 degrees) at 9 MPH (8 knots; 4.1 m/s)
Visibility: 6 or more miles (10+ km)
Ceiling: at least 12,000 feet AGL
Clouds: scattered clouds at 2400 feet AGL
Weather: no significant weather observed at this time

METAR text: EBCI 241150Z 20008KT 9999 SCT024 00/M02 Q1001 R24/290095 NOSIG
Conditions at: EBCI (CHARLEROI/GOSSEL, BE) observed 1150 UTC 24 January 2021
Temperature: 0.0°C (32°F)
Dewpoint: -2.0°C (28°F) [RH = 86%]
Pressure (altimeter): 29.56 inches Hg (1001.0 mb)
Winds: from the SSW (200 degrees) at 9 MPH (8 knots; 4.1 m/s)
Visibility: 6 or more miles (10+ km)
Ceiling: at least 12,000 feet AGL
Clouds: scattered clouds at 2400 feet AGL
Weather: no significant weather observed at this time

METAR text: EBCI 241120Z 20008KT CAVOK 00/M02 Q1001 R24/290095 NOSIG
Conditions at: EBCI (CHARLEROI/GOSSEL, BE) observed 1120 UTC 24 January 2021
Temperature: 0.0°C (32°F)
Dewpoint: -2.0°C (28°F) [RH = 86%]
Pressure (altimeter): 29.56 inches Hg (1001.0 mb)
Winds: from the SSW (200 degrees) at 9 MPH (8 knots; 4.1 m/s)
Visibility: 6 or more miles (10+ km)
Ceiling: ceiling and visibility are OK
Clouds: unknown
Weather: no significant weather observed at this time

METAR text: EBCI 241050Z 20009KT CAVOK M00/M02 Q1001 R24/290095 NOSIG
Conditions at: EBCI (CHARLEROI/GOSSEL, BE) observed 1050 UTC 24 January 2021
Temperature: 0.0°C (32°F)
Dewpoint: -2.0°C (28°F) [RH = 86%]
Pressure (altimeter): 29.56 inches Hg (1001.0 mb)
Winds: from the SSW (200 degrees) at 10 MPH (9 knots; 4.6 m/s)
Visibility: 6 or more miles (10+ km)
Ceiling: ceiling and visibility are OK
Clouds: unknown
Weather: no significant weather observed at this time

METAR text: EBCI 241020Z 21009KT CAVOK M00/M02 Q1001 R24/290095 NOSIG
Conditions at: EBCI (CHARLEROI/GOSSEL, BE) observed 1020 UTC 24 January 2021
Temperature: 0.0°C (32°F)
Dewpoint: -2.0°C (28°F) [RH = 86%]
Pressure (altimeter): 29.56 inches Hg (1001.0 mb)
Winds: from the SSW (210 degrees) at 10 MPH (9 knots; 4.6 m/s)
Visibility: 6 or more miles (10+ km)
Ceiling: ceiling and visibility are OK
Clouds: unknown
Weather: no significant weather observed at this time

METAR text: EBCI 240950Z 21007KT CAVOK 00/M01 Q1001 R24/290095 NOSIG
Conditions at: EBCI (CHARLEROI/GOSSEL, BE) observed 0950 UTC 24 January 2021
Temperature: 0.0°C (32°F)
Dewpoint: -1.0°C (30°F) [RH = 93%]
Pressure (altimeter): 29.56 inches Hg (1001.0 mb)
Winds: from the SSW (210 degrees) at 8 MPH (7 knots; 3.6 m/s)
Visibility: 6 or more miles (10+ km)
Ceiling: ceiling and visibility are OK
Clouds: unknown
Weather: no significant weather observed at this time

METAR text: EBCI 240920Z 22006KT CAVOK M00/M02 Q1001 R24/290095 NOSIG
Conditions at: EBCI (CHARLEROI/GOSSEL, BE) observed 0920 UTC 24 January 2021
Temperature: 0.0°C (32°F)
Dewpoint: -2.0°C (28°F) [RH = 86%]
Pressure (altimeter): 29.56 inches Hg (1001.0 mb)
Winds: from the SW (220 degrees) at 7 MPH (6 knots; 3.1 m/s)
Visibility: 6 or more miles (10+ km)
Ceiling: ceiling and visibility are OK
Clouds: unknown
Weather: no significant weather observed at this time

METAR text: EBCI 240850Z 23007KT CAVOK M01/M02 Q1001 R24/290095 NOSIG
Conditions at: EBCI (CHARLEROI/GOSSEL, BE) observed 0850 UTC 24 January 2021
Temperature: -1.0°C (30°F)
Dewpoint: -2.0°C (28°F) [RH = 93%]
Pressure (altimeter): 29.56 inches Hg (1001.0 mb)
Winds: from the SW (230 degrees) at 8 MPH (7 knots; 3.6 m/s)
Visibility: 6 or more miles (10+ km)
Ceiling: ceiling and visibility are OK
Clouds: unknown
Weather: no significant weather observed at this time

METAR text: EBCI 240820Z 24007KT CAVOK M01/M03 Q1000 R24/290095 NOSIG
Conditions at: EBCI (CHARLEROI/GOSSEL, BE) observed 0820 UTC 24 January 2021
Temperature: -1.0°C (30°F)
Dewpoint: -3.0°C (27°F) [RH = 86%]
Pressure (altimeter): 29.53 inches Hg (1000.0 mb)
Winds: from the WSW (240 degrees) at 8 MPH (7 knots; 3.6 m/s)
Visibility: 6 or more miles (10+ km)
Ceiling: ceiling and visibility are OK
Clouds: unknown
Weather: no significant weather observed at this time

METAR text: EBCI 240750Z 23006KT 8000 FEW025 M01/M03 Q1000 R24/290095 NOSIG
Conditions at: EBCI (CHARLEROI/GOSSEL, BE) observed 0750 UTC 24 January 2021
Temperature: -1.0°C (30°F)
Dewpoint: -3.0°C (27°F) [RH = 86%]
Pressure (altimeter): 29.53 inches Hg (1000.0 mb)
Winds: from the SW (230 degrees) at 7 MPH (6 knots; 3.1 m/s)
Visibility: 5 miles ( 8 km)
Ceiling: at least 12,000 feet AGL
Clouds: few clouds at 2500 feet AGL
Weather: no significant weather observed at this time

METAR text: EBCI 240720Z 24008KT 8000 FEW025 M01/M03 Q1000 R24/290095 NOSIG
Conditions at: EBCI (CHARLEROI/GOSSEL, BE) observed 0720 UTC 24 January 2021
Temperature: -1.0°C (30°F)
Dewpoint: -3.0°C (27°F) [RH = 86%]
Pressure (altimeter): 29.53 inches Hg (1000.0 mb)
Winds: from the WSW (240 degrees) at 9 MPH (8 knots; 4.1 m/s)
Visibility: 5 miles ( 8 km)
Ceiling: at least 12,000 feet AGL
Clouds: few clouds at 2500 feet AGL
Weather: no significant weather observed at this time

METAR text: EBCI 240650Z 25008KT 8000 FEW025 M01/M02 Q0999 R24/290095 NOSIG
Conditions at: EBCI (CHARLEROI/GOSSEL, BE) observed 0650 UTC 24 January 2021
Temperature: -1.0°C (30°F)
Dewpoint: -2.0°C (28°F) [RH = 93%]
Pressure (altimeter): 29.50 inches Hg (999.0 mb)
Winds: from the WSW (250 degrees) at 9 MPH (8 knots; 4.1 m/s)
Visibility: 5 miles ( 8 km)
Ceiling: at least 12,000 feet AGL
Clouds: few clouds at 2500 feet AGL
Weather: no significant weather observed at this time

METAR text: EBCI 240620Z 25006KT 9999 FEW008 SCT025 M01/M02 Q0999 R24/290095 NOSIG
Conditions at: EBCI (CHARLEROI/GOSSEL, BE) observed 0620 UTC 24 January 2021
Temperature: -1.0°C (30°F)
Dewpoint: -2.0°C (28°F) [RH = 93%]
Pressure (altimeter): 29.50 inches Hg (999.0 mb)
Winds: from the WSW (250 degrees) at 7 MPH (6 knots; 3.1 m/s)
Visibility: 6 or more miles (10+ km)
Ceiling: at least 12,000 feet AGL
Clouds: few clouds at 800 feet AGL
scattered clouds at 2500 feet AGL
Weather: no significant weather observed at this time

METAR text: EBCI 240550Z 25007KT 9999 FEW008 SCT035 M00/M02 Q0999 R24/290095 NOSIG
Conditions at: EBCI (CHARLEROI/GOSSEL, BE) observed 0550 UTC 24 January 2021
Temperature: 0.0°C (32°F)
Dewpoint: -2.0°C (28°F) [RH = 86%]
Pressure (altimeter): 29.50 inches Hg (999.0 mb)
Winds: from the WSW (250 degrees) at 8 MPH (7 knots; 3.6 m/s)
Visibility: 6 or more miles (10+ km)
Ceiling: at least 12,000 feet AGL
Clouds: few clouds at 800 feet AGL
scattered clouds at 3500 feet AGL
Weather: no significant weather observed at this time

METAR text: EBCI 240520Z 26007KT 230V290 9000 FEW005 BKN008 M00/M02 Q0999 R24/590293 NOSIG
Conditions at: EBCI (CHARLEROI/GOSSEL, BE) observed 0520 UTC 24 January 2021
Temperature: 0.0°C (32°F)
Dewpoint: -2.0°C (28°F) [RH = 86%]
Pressure (altimeter): 29.50 inches Hg (999.0 mb)
Winds: from the W (260 degrees) at 8 MPH (7 knots; 3.6 m/s)
Visibility: 6 miles ( 9 km)
Ceiling: 800 feet AGL
Clouds: few clouds at 500 feet AGL
broken clouds at 800 feet AGL
Weather: no significant weather observed at this time

METAR text: EBCI 240450Z 26007KT 6000 FEW004 BKN006 00/M01 Q0998 R24/590293 NOSIG
Conditions at: EBCI (CHARLEROI/GOSSEL, BE) observed 0450 UTC 24 January 2021
Temperature: 0.0°C (32°F)
Dewpoint: -1.0°C (30°F) [RH = 93%]
Pressure (altimeter): 29.47 inches Hg (998.0 mb)
Winds: from the W (260 degrees) at 8 MPH (7 knots; 3.6 m/s)
Visibility: 4 miles ( 6 km)
Ceiling: 600 feet AGL
Clouds: few clouds at 400 feet AGL
broken clouds at 600 feet AGL
Weather: no significant weather observed at this time

METAR text: EBCI 240420Z 26007KT 6000 FEW004 BKN006 00/M01 Q0998 R24/590293 NOSIG
Conditions at: EBCI (CHARLEROI/GOSSEL, BE) observed 0420 UTC 24 January 2021
Temperature: 0.0°C (32°F)
Dewpoint: -1.0°C (30°F) [RH = 93%]
Pressure (altimeter): 29.47 inches Hg (998.0 mb)
Winds: from the W (260 degrees) at 8 MPH (7 knots; 3.6 m/s)
Visibility: 4 miles ( 6 km)
Ceiling: 600 feet AGL
Clouds: few clouds at 400 feet AGL
broken clouds at 600 feet AGL
Weather: no significant weather observed at this time

METAR text: EBCI 240350Z 26007KT 7000 FEW004 BKN006 00/M01 Q0998 R24/590293 NOSIG
Conditions at: EBCI (CHARLEROI/GOSSEL, BE) observed 0350 UTC 24 January 2021
Temperature: 0.0°C (32°F)
Dewpoint: -1.0°C (30°F) [RH = 93%]
Pressure (altimeter): 29.47 inches Hg (998.0 mb)
Winds: from the W (260 degrees) at 8 MPH (7 knots; 3.6 m/s)
Visibility: 4 miles ( 7 km)
Ceiling: 600 feet AGL
Clouds: few clouds at 400 feet AGL
broken clouds at 600 feet AGL
Weather: no significant weather observed at this time

METAR text: EBCI 240320Z 28007KT 230V310 7000 -SN FEW004 BKN006 00/M01 Q0997 R24/590293 NOSIG
Conditions at: EBCI (CHARLEROI/GOSSEL, BE) observed 0320 UTC 24 January 2021
Temperature: 0.0°C (32°F)
Dewpoint: -1.0°C (30°F) [RH = 93%]
Pressure (altimeter): 29.44 inches Hg (997.0 mb)
Winds: from the W (280 degrees) at 8 MPH (7 knots; 3.6 m/s)
Visibility: 4 miles ( 7 km)
Ceiling: 600 feet AGL
Clouds: few clouds at 400 feet AGL
broken clouds at 600 feet AGL
Weather: -SN  (light snow)

METAR text: EBCI 240250Z 27007KT 230V310 9000 FEW004 BKN006 00/M01 Q0997 R24/590293 NOSIG
Conditions at: EBCI (CHARLEROI/GOSSEL, BE) observed 0250 UTC 24 January 2021
Temperature: 0.0°C (32°F)
Dewpoint: -1.0°C (30°F) [RH = 93%]
Pressure (altimeter): 29.44 inches Hg (997.0 mb)
Winds: from the W (270 degrees) at 8 MPH (7 knots; 3.6 m/s)
Visibility: 6 miles ( 9 km)
Ceiling: 600 feet AGL
Clouds: few clouds at 400 feet AGL
broken clouds at 600 feet AGL
Weather: no significant weather observed at this time

METAR text: EBCI 240220Z 26008KT 230V300 9000 FEW004 BKN006 00/M01 Q0996 R24/590293 NOSIG
Conditions at: EBCI (CHARLEROI/GOSSEL, BE) observed 0220 UTC 24 January 2021
Temperature: 0.0°C (32°F)
Dewpoint: -1.0°C (30°F) [RH = 93%]
Pressure (altimeter): 29.41 inches Hg (996.0 mb)
Winds: from the W (260 degrees) at 9 MPH (8 knots; 4.1 m/s)
Visibility: 6 miles ( 9 km)
Ceiling: 600 feet AGL
Clouds: few clouds at 400 feet AGL
broken clouds at 600 feet AGL
Weather: no significant weather observed at this time

METAR text: EBCI 240150Z 27006KT 240V350 8000 FEW004 BKN006 00/M01 Q0996 R24/590293 NOSIG
Conditions at: EBCI (CHARLEROI/GOSSEL, BE) observed 0150 UTC 24 January 2021
Temperature: 0.0°C (32°F)
Dewpoint: -1.0°C (30°F) [RH = 93%]
Pressure (altimeter): 29.41 inches Hg (996.0 mb)
Winds: from the W (270 degrees) at 7 MPH (6 knots; 3.1 m/s)
Visibility: 5 miles ( 8 km)
Ceiling: 600 feet AGL
Clouds: few clouds at 400 feet AGL
broken clouds at 600 feet AGL
Weather: no significant weather observed at this time

METAR text: EBCI 240120Z 28006KT 260V320 8000 FEW004 BKN006 00/M01 Q0996 R24/590293 NOSIG
Conditions at: EBCI (CHARLEROI/GOSSEL, BE) observed 0120 UTC 24 January 2021
Temperature: 0.0°C (32°F)
Dewpoint: -1.0°C (30°F) [RH = 93%]
Pressure (altimeter): 29.41 inches Hg (996.0 mb)
Winds: from the W (280 degrees) at 7 MPH (6 knots; 3.1 m/s)
Visibility: 5 miles ( 8 km)
Ceiling: 600 feet AGL
Clouds: few clouds at 400 feet AGL
broken clouds at 600 feet AGL
Weather: no significant weather observed at this time

METAR text: EBCI 240050Z 27007KT 240V300 8000 FEW004 BKN006 00/M01 Q0995 R24/590293 NOSIG
Conditions at: EBCI (CHARLEROI/GOSSEL, BE) observed 0050 UTC 24 January 2021
Temperature: 0.0°C (32°F)
Dewpoint: -1.0°C (30°F) [RH = 93%]
Pressure (altimeter): 29.38 inches Hg (995.0 mb)
Winds: from the W (270 degrees) at 8 MPH (7 knots; 3.6 m/s)
Visibility: 5 miles ( 8 km)
Ceiling: 600 feet AGL
Clouds: few clouds at 400 feet AGL
broken clouds at 600 feet AGL
Weather: no significant weather observed at this time

METAR text: EBCI 240020Z 27007KT 230V300 8000 FEW004 BKN006 01/M01 Q0995 R24/590293 NOSIG
Conditions at: EBCI (CHARLEROI/GOSSEL, BE) observed 0020 UTC 24 January 2021
Temperature: 1.0°C (34°F)
Dewpoint: -1.0°C (30°F) [RH = 86%]
Pressure (altimeter): 29.38 inches Hg (995.0 mb)
Winds: from the W (270 degrees) at 8 MPH (7 knots; 3.6 m/s)
Visibility: 5 miles ( 8 km)
Ceiling: 600 feet AGL
Clouds: few clouds at 400 feet AGL
broken clouds at 600 feet AGL
Weather: no significant weather observed at this time

METAR text: EBCI 232350Z 27006KT 250V330 7000 FEW004 BKN006 01/M01 Q0995 R24/590293 NOSIG
Conditions at: EBCI (CHARLEROI/GOSSEL, BE) observed 2350 UTC 23 January 2021
Temperature: 1.0°C (34°F)
Dewpoint: -1.0°C (30°F) [RH = 86%]
Pressure (altimeter): 29.38 inches Hg (995.0 mb)
Winds: from the W (270 degrees) at 7 MPH (6 knots; 3.1 m/s)
Visibility: 4 miles ( 7 km)
Ceiling: 600 feet AGL
Clouds: few clouds at 400 feet AGL
broken clouds at 600 feet AGL
Weather: no significant weather observed at this time

METAR text: EBCI 232320Z 28006KT 250V320 7000 FEW004 BKN006 01/M01 Q0995 R24/590293 NOSIG
Conditions at: EBCI (CHARLEROI/GOSSEL, BE) observed 2320 UTC 23 January 2021
Temperature: 1.0°C (34°F)
Dewpoint: -1.0°C (30°F) [RH = 86%]
Pressure (altimeter): 29.38 inches Hg (995.0 mb)
Winds: from the W (280 degrees) at 7 MPH (6 knots; 3.1 m/s)
Visibility: 4 miles ( 7 km)
Ceiling: 600 feet AGL
Clouds: few clouds at 400 feet AGL
broken clouds at 600 feet AGL
Weather: no significant weather observed at this time

METAR text: EBCI 232250Z 27006KT 240V300 5000 BR FEW002 BKN003 00/M00 Q0994 R24/590293 NOSIG
Conditions at: EBCI (CHARLEROI/GOSSEL, BE) observed 2250 UTC 23 January 2021
Temperature: 0.0°C (32°F)
Dewpoint: 0.0°C (32°F) [RH = 100%]
Pressure (altimeter): 29.35 inches Hg (994.0 mb)
Winds: from the W (270 degrees) at 7 MPH (6 knots; 3.1 m/s)
Visibility: 3 miles ( 5 km)
Ceiling: 300 feet AGL
Clouds: few clouds at 200 feet AGL
broken clouds at 300 feet AGL
Weather: BR  (mist)

METAR text: EBCI 232220Z 28005KT 250V310 2500 -SN BR SCT002 BKN003 00/M01 Q0994 R24/590293 NOSIG
Conditions at: EBCI (CHARLEROI/GOSSEL, BE) observed 2220 UTC 23 January 2021
Temperature: 0.0°C (32°F)
Dewpoint: -1.0°C (30°F) [RH = 93%]
Pressure (altimeter): 29.35 inches Hg (994.0 mb)
Winds: from the W (280 degrees) at 6 MPH (5 knots; 2.6 m/s)
Visibility: 1.55 miles (2.49 km)
Ceiling: 300 feet AGL
Clouds: scattered clouds at 200 feet AGL
broken clouds at 300 feet AGL
Weather: -SN BR  (light snow, mist)

METAR text: EBCI 232150Z 29005KT 260V340 2500 -SN BR SCT002 BKN003 00/M01 Q0994 R24/590293 NOSIG
Conditions at: EBCI (CHARLEROI/GOSSEL, BE) observed 2150 UTC 23 January 2021
Temperature: 0.0°C (32°F)
Dewpoint: -1.0°C (30°F) [RH = 93%]
Pressure (altimeter): 29.35 inches Hg (994.0 mb)
Winds: from the WNW (290 degrees) at 6 MPH (5 knots; 2.6 m/s)
Visibility: 1.55 miles (2.49 km)
Ceiling: 300 feet AGL
Clouds: scattered clouds at 200 feet AGL
broken clouds at 300 feet AGL
Weather: -SN BR  (light snow, mist)

METAR text: EBCI 232120Z 30005KT 250V330 2200 -SN BR SCT002 BKN003 M00/M01 Q0994 R24/590293 NOSIG
Conditions at: EBCI (CHARLEROI/GOSSEL, BE) observed 2120 UTC 23 January 2021
Temperature: 0.0°C (32°F)
Dewpoint: -1.0°C (30°F) [RH = 93%]
Pressure (altimeter): 29.35 inches Hg (994.0 mb)
Winds: from the WNW (300 degrees) at 6 MPH (5 knots; 2.6 m/s)
Visibility: 1.37 miles (2.20 km)
Ceiling: 300 feet AGL
Clouds: scattered clouds at 200 feet AGL
broken clouds at 300 feet AGL
Weather: -SN BR  (light snow, mist)

METAR text: EBCI 232050Z 30004KT 270V340 2500 -SN BR SCT002 BKN003 00/M01 Q0993 R24/590293 NOSIG
Conditions at: EBCI (CHARLEROI/GOSSEL, BE) observed 2050 UTC 23 January 2021
Temperature: 0.0°C (32°F)
Dewpoint: -1.0°C (30°F) [RH = 93%]
Pressure (altimeter): 29.32 inches Hg (993.0 mb)
Winds: from the WNW (300 degrees) at 5 MPH (4 knots; 2.1 m/s)
Visibility: 1.55 miles (2.49 km)
Ceiling: 300 feet AGL
Clouds: scattered clouds at 200 feet AGL
broken clouds at 300 feet AGL
Weather: -SN BR  (light snow, mist)

METAR text: EBCI 232020Z 33005KT 300V010 1800 -SN BR SCT002 BKN003 00/M01 Q0993 NOSIG
Conditions at: EBCI (CHARLEROI/GOSSEL, BE) observed 2020 UTC 23 January 2021
Temperature: 0.0°C (32°F)
Dewpoint: -1.0°C (30°F) [RH = 93%]
Pressure (altimeter): 29.32 inches Hg (993.0 mb)
Winds: from the NNW (330 degrees) at 6 MPH (5 knots; 2.6 m/s)
Visibility: 1.12 miles (1.80 km)
Ceiling: 300 feet AGL
Clouds: scattered clouds at 200 feet AGL
broken clouds at 300 feet AGL
Weather: -SN BR  (light snow, mist)

METAR text: EBCI 231950Z 32006KT 290V350 1000 R24/1900N -SN BR FEW001 BKN002 00/M01 Q0993 TEMPO 0700 SN
Conditions at: EBCI (CHARLEROI/GOSSEL, BE) observed 1950 UTC 23 January 2021
Temperature: 0.0°C (32°F)
Dewpoint: -1.0°C (30°F) [RH = 93%]
Pressure (altimeter): 29.32 inches Hg (993.0 mb)
Winds: from the NW (320 degrees) at 7 MPH (6 knots; 3.1 m/s)
Visibility: 0.62 miles (1.00 km)
Ceiling: 200 feet AGL
Clouds: few clouds at 100 feet AGL
broken clouds at 200 feet AGL
Weather: -SN BR  (light snow, mist)

METAR text: EBCI 231920Z 32006KT 270V350 1200 R24/P2000N -SN BR FEW001 BKN002 00/M01 Q0993 TEMPO 0700 SN
Conditions at: EBCI (CHARLEROI/GOSSEL, BE) observed 1920 UTC 23 January 2021
Temperature: 0.0°C (32°F)
Dewpoint: -1.0°C (30°F) [RH = 93%]
Pressure (altimeter): 29.32 inches Hg (993.0 mb)
Winds: from the NW (320 degrees) at 7 MPH (6 knots; 3.1 m/s)
Visibility: 0.75 miles (1.21 km)
Ceiling: 200 feet AGL
Clouds: few clouds at 100 feet AGL
broken clouds at 200 feet AGL
Weather: -SN BR  (light snow, mist)

METAR text: EBCI 231850Z 33003KT 300V010 0800 R24/1800U -SN FG FEW001 BKN002 00/M01 Q0993 TEMPO 0700 SN
Conditions at: EBCI (CHARLEROI/GOSSEL, BE) observed 1850 UTC 23 January 2021
Temperature: 0.0°C (32°F)
Dewpoint: -1.0°C (30°F) [RH = 93%]
Pressure (altimeter): 29.32 inches Hg (993.0 mb)
Winds: from the NNW (330 degrees) at 3 MPH (3 knots; 1.5 m/s)
Visibility: 0.50 miles (0.80 km)
Ceiling: 200 feet AGL
Clouds: few clouds at 100 feet AGL
broken clouds at 200 feet AGL
Weather: -SN FG  (light snow, fog)

METAR text: EBCI 231820Z 32003KT 290V350 0800 R24/1900N -SN FG FEW001 BKN002 00/M00 Q0992 TEMPO 0700 SN
Conditions at: EBCI (CHARLEROI/GOSSEL, BE) observed 1820 UTC 23 January 2021
Temperature: 0.0°C (32°F)
Dewpoint: 0.0°C (32°F) [RH = 100%]
Pressure (altimeter): 29.29 inches Hg (992.0 mb)
Winds: from the NW (320 degrees) at 3 MPH (3 knots; 1.5 m/s)
Visibility: 0.50 miles (0.80 km)
Ceiling: 200 feet AGL
Clouds: few clouds at 100 feet AGL
broken clouds at 200 feet AGL
Weather: -SN FG  (light snow, fog)

METAR text: EBCI 231750Z 33003KT 1600 1200 R24/1900N -SN BR SCT003 BKN004 00/M00 Q0992 TEMPO 2000 RASN BR BKN003
Conditions at: EBCI (CHARLEROI/GOSSEL, BE) observed 1750 UTC 23 January 2021
Temperature: 0.0°C (32°F)
Dewpoint: 0.0°C (32°F) [RH = 100%]
Pressure (altimeter): 29.29 inches Hg (992.0 mb)
Winds: from the NNW (330 degrees) at 3 MPH (3 knots; 1.5 m/s)
Visibility: 0.99 miles (1.59 km)
Ceiling: 400 feet AGL
Clouds: scattered clouds at 300 feet AGL
broken clouds at 400 feet AGL
Weather: -SN BR  (light snow, mist)

METAR text: EBCI 231720Z VRB01KT 2000 -SNRA BR SCT004 BKN006 01/M00 Q0992 TEMPO 2000 RASN BR BKN003
Conditions at: EBCI (CHARLEROI/GOSSEL, BE) observed 1720 UTC 23 January 2021
Temperature: 1.0°C (34°F)
Dewpoint: 0.0°C (32°F) [RH = 93%]
Pressure (altimeter): 29.29 inches Hg (992.0 mb)
Winds: variable direction winds at 1 MPH (1 knots; 0.5 m/s)
Visibility: 1.24 miles (2.00 km)
Ceiling: 600 feet AGL
Clouds: scattered clouds at 400 feet AGL
broken clouds at 600 feet AGL
Weather: -SN -RA BR  (light snow, light rain, mist)

METAR text: EBCI 231650Z 02005KT 3000 -SNRA BR SCT006 BKN010 01/00 Q0992 REDZ TEMPO 2000 RASN BR BKN004
Conditions at: EBCI (CHARLEROI/GOSSEL, BE) observed 1650 UTC 23 January 2021
Temperature: 1.0°C (34°F)
Dewpoint: 0.0°C (32°F) [RH = 93%]
Pressure (altimeter): 29.29 inches Hg (992.0 mb)
Winds: from the NNE (20 degrees) at 6 MPH (5 knots; 2.6 m/s)
Visibility: 1.86 miles (2.99 km)
Ceiling: 1000 feet AGL
Clouds: scattered clouds at 600 feet AGL
broken clouds at 1000 feet AGL
Weather: -SN -RA BR  (light snow, light rain, mist)

METAR text: EBCI 231620Z 05007KT 2500 RADZ BR SCT005 BKN010 02/01 Q0992 TEMPO 2000 RASN BR BKN004
Conditions at: EBCI (CHARLEROI/GOSSEL, BE) observed 1620 UTC 23 January 2021
Temperature: 2.0°C (36°F)
Dewpoint: 1.0°C (34°F) [RH = 93%]
Pressure (altimeter): 29.29 inches Hg (992.0 mb)
Winds: from the NE (50 degrees) at 8 MPH (7 knots; 3.6 m/s)
Visibility: 1.55 miles (2.49 km)
Ceiling: 1000 feet AGL
Clouds: scattered clouds at 500 feet AGL
broken clouds at 1000 feet AGL
Weather: RA DZ BR  (moderate rain, moderate drizzle, mist)

METAR text: EBCI 231550Z 12005KT 080V160 3000 RADZ BR SCT005 BKN010 03/02 Q0992 TEMPO 2000 RADZ BR BKN004
Conditions at: EBCI (CHARLEROI/GOSSEL, BE) observed 1550 UTC 23 January 2021
Temperature: 3.0°C (37°F)
Dewpoint: 2.0°C (36°F) [RH = 93%]
Pressure (altimeter): 29.29 inches Hg (992.0 mb)
Winds: from the ESE (120 degrees) at 6 MPH (5 knots; 2.6 m/s)
Visibility: 1.86 miles (2.99 km)
Ceiling: 1000 feet AGL
Clouds: scattered clouds at 500 feet AGL
broken clouds at 1000 feet AGL
Weather: RA DZ BR  (moderate rain, moderate drizzle, mist)

METAR text: EBCI 231520Z 05006KT 4000 -RADZ BR SCT005 BKN010 04/02 Q0992 BECMG 3000 RADZ BR BKN005
Conditions at: EBCI (CHARLEROI/GOSSEL, BE) observed 1520 UTC 23 January 2021
Temperature: 4.0°C (39°F)
Dewpoint: 2.0°C (36°F) [RH = 87%]
Pressure (altimeter): 29.29 inches Hg (992.0 mb)
Winds: from the NE (50 degrees) at 7 MPH (6 knots; 3.1 m/s)
Visibility: 2.49 miles (4.01 km)
Ceiling: 1000 feet AGL
Clouds: scattered clouds at 500 feet AGL
broken clouds at 1000 feet AGL
Weather: -RA -DZ BR  (light rain, light drizzle, mist)

METAR text: EBCI 231450Z 06007KT 8000 -RADZ FEW008 BKN016 04/02 Q0992 BECMG 4000 -RADZ BR BKN008
Conditions at: EBCI (CHARLEROI/GOSSEL, BE) observed 1450 UTC 23 January 2021
Temperature: 4.0°C (39°F)
Dewpoint: 2.0°C (36°F) [RH = 87%]
Pressure (altimeter): 29.29 inches Hg (992.0 mb)
Winds: from the ENE (60 degrees) at 8 MPH (7 knots; 3.6 m/s)
Visibility: 5 miles ( 8 km)
Ceiling: 1600 feet AGL
Clouds: few clouds at 800 feet AGL
broken clouds at 1600 feet AGL
Weather: -RA -DZ  (light rain, light drizzle)

METAR text: EBCI 231420Z 07004KT 9999 -RADZ FEW008 BKN016 05/01 Q0992 BECMG 4000 -RADZ BR BKN008
Conditions at: EBCI (CHARLEROI/GOSSEL, BE) observed 1420 UTC 23 January 2021
Temperature: 5.0°C (41°F)
Dewpoint: 1.0°C (34°F) [RH = 75%]
Pressure (altimeter): 29.29 inches Hg (992.0 mb)
Winds: from the ENE (70 degrees) at 5 MPH (4 knots; 2.1 m/s)
Visibility: 6 or more miles (10+ km)
Ceiling: 1600 feet AGL
Clouds: few clouds at 800 feet AGL
broken clouds at 1600 feet AGL
Weather: -RA -DZ  (light rain, light drizzle)

METAR text: EBCI 231350Z 13003KT 090V170 9999 FEW010 BKN016 05/01 Q0992 BECMG 4000 -RADZ BR BKN008
Conditions at: EBCI (CHARLEROI/GOSSEL, BE) observed 1350 UTC 23 January 2021
Temperature: 5.0°C (41°F)
Dewpoint: 1.0°C (34°F) [RH = 75%]
Pressure (altimeter): 29.29 inches Hg (992.0 mb)
Winds: from the SE (130 degrees) at 3 MPH (3 knots; 1.5 m/s)
Visibility: 6 or more miles (10+ km)
Ceiling: 1600 feet AGL
Clouds: few clouds at 1000 feet AGL
broken clouds at 1600 feet AGL
Weather: no significant weather observed at this time

METAR text: EBCI 231320Z 13005KT 090V180 9999 FEW010 SCT014 BKN020 05/01 Q0992 BECMG 4000 -RADZ BR BKN008
Conditions at: EBCI (CHARLEROI/GOSSEL, BE) observed 1320 UTC 23 January 2021
Temperature: 5.0°C (41°F)
Dewpoint: 1.0°C (34°F) [RH = 75%]
Pressure (altimeter): 29.29 inches Hg (992.0 mb)
Winds: from the SE (130 degrees) at 6 MPH (5 knots; 2.6 m/s)
Visibility: 6 or more miles (10+ km)
Ceiling: 2000 feet AGL
Clouds: few clouds at 1000 feet AGL
scattered clouds at 1400 feet AGL
broken clouds at 2000 feet AGL
Weather: no significant weather observed at this time

METAR text: EBCI 231250Z 15005KT 120V180 9999 FEW010 SCT014 BKN020 05/01 Q0993 BECMG 3500 -RADZ BR BKN008
Conditions at: EBCI (CHARLEROI/GOSSEL, BE) observed 1250 UTC 23 January 2021
Temperature: 5.0°C (41°F)
Dewpoint: 1.0°C (34°F) [RH = 75%]
Pressure (altimeter): 29.32 inches Hg (993.0 mb)
Winds: from the SSE (150 degrees) at 6 MPH (5 knots; 2.6 m/s)
Visibility: 6 or more miles (10+ km)
Ceiling: 2000 feet AGL
Clouds: few clouds at 1000 feet AGL
scattered clouds at 1400 feet AGL
broken clouds at 2000 feet AGL
Weather: no significant weather observed at this time

METAR text: EBCI 231220Z 17008KT 140V210 9999 FEW010 SCT014 BKN020 04/01 Q0993 TEMPO BKN009
Conditions at: EBCI (CHARLEROI/GOSSEL, BE) observed 1220 UTC 23 January 2021
Temperature: 4.0°C (39°F)
Dewpoint: 1.0°C (34°F) [RH = 81%]
Pressure (altimeter): 29.32 inches Hg (993.0 mb)
Winds: from the S (170 degrees) at 9 MPH (8 knots; 4.1 m/s)
Visibility: 6 or more miles (10+ km)
Ceiling: 2000 feet AGL
Clouds: few clouds at 1000 feet AGL
scattered clouds at 1400 feet AGL
broken clouds at 2000 feet AGL
Weather: no significant weather observed at this time

METAR text: EBCI 231150Z 18008KT 140V200 9999 SCT010 BKN014 04/01 Q0994 TEMPO BKN009
Conditions at: EBCI (CHARLEROI/GOSSEL, BE) observed 1150 UTC 23 January 2021
Temperature: 4.0°C (39°F)
Dewpoint: 1.0°C (34°F) [RH = 81%]
Pressure (altimeter): 29.35 inches Hg (994.0 mb)
Winds: from the S (180 degrees) at 9 MPH (8 knots; 4.1 m/s)
Visibility: 6 or more miles (10+ km)
Ceiling: 1400 feet AGL
Clouds: scattered clouds at 1000 feet AGL
broken clouds at 1400 feet AGL
Weather: no significant weather observed at this time

METAR text: EBCI 231120Z 17010KT 9999 SCT010 BKN014 04/01 Q0994 TEMPO BKN009
Conditions at: EBCI (CHARLEROI/GOSSEL, BE) observed 1120 UTC 23 January 2021
Temperature: 4.0°C (39°F)
Dewpoint: 1.0°C (34°F) [RH = 81%]
Pressure (altimeter): 29.35 inches Hg (994.0 mb)
Winds: from the S (170 degrees) at 12 MPH (10 knots; 5.1 m/s)
Visibility: 6 or more miles (10+ km)
Ceiling: 1400 feet AGL
Clouds: scattered clouds at 1000 feet AGL
broken clouds at 1400 feet AGL
Weather: no significant weather observed at this time

METAR text: EBCI 231050Z 17009KT 140V200 9999 SCT010 BKN014 04/01 Q0994 TEMPO BKN009
Conditions at: EBCI (CHARLEROI/GOSSEL, BE) observed 1050 UTC 23 January 2021
Temperature: 4.0°C (39°F)
Dewpoint: 1.0°C (34°F) [RH = 81%]
Pressure (altimeter): 29.35 inches Hg (994.0 mb)
Winds: from the S (170 degrees) at 10 MPH (9 knots; 4.6 m/s)
Visibility: 6 or more miles (10+ km)
Ceiling: 1400 feet AGL
Clouds: scattered clouds at 1000 feet AGL
broken clouds at 1400 feet AGL
Weather: no significant weather observed at this time

METAR text: EBCI 231020Z 17009KT 9999 SCT010 BKN014 04/01 Q0994 TEMPO BKN009
Conditions at: EBCI (CHARLEROI/GOSSEL, BE) observed 1020 UTC 23 January 2021
Temperature: 4.0°C (39°F)
Dewpoint: 1.0°C (34°F) [RH = 81%]
Pressure (altimeter): 29.35 inches Hg (994.0 mb)
Winds: from the S (170 degrees) at 10 MPH (9 knots; 4.6 m/s)
Visibility: 6 or more miles (10+ km)
Ceiling: 1400 feet AGL
Clouds: scattered clouds at 1000 feet AGL
broken clouds at 1400 feet AGL
Weather: no significant weather observed at this time

METAR text: EBCI 230950Z 19010KT 9999 SCT010 BKN014 04/01 Q0995 TEMPO BKN009
Conditions at: EBCI (CHARLEROI/GOSSEL, BE) observed 0950 UTC 23 January 2021
Temperature: 4.0°C (39°F)
Dewpoint: 1.0°C (34°F) [RH = 81%]
Pressure (altimeter): 29.38 inches Hg (995.0 mb)
Winds: from the S (190 degrees) at 12 MPH (10 knots; 5.1 m/s)
Visibility: 6 or more miles (10+ km)
Ceiling: 1400 feet AGL
Clouds: scattered clouds at 1000 feet AGL
broken clouds at 1400 feet AGL
Weather: no significant weather observed at this time

METAR text: EBCI 230920Z 18009KT 9999 SCT010 BKN014 03/01 Q0995 TEMPO BKN009
Conditions at: EBCI (CHARLEROI/GOSSEL, BE) observed 0920 UTC 23 January 2021
Temperature: 3.0°C (37°F)
Dewpoint: 1.0°C (34°F) [RH = 87%]
Pressure (altimeter): 29.38 inches Hg (995.0 mb)
Winds: from the S (180 degrees) at 10 MPH (9 knots; 4.6 m/s)
Visibility: 6 or more miles (10+ km)
Ceiling: 1400 feet AGL
Clouds: scattered clouds at 1000 feet AGL
broken clouds at 1400 feet AGL
Weather: no significant weather observed at this time

METAR text: EBCI 230850Z 20009KT 9999 SCT009 BKN012 03/01 Q0995 TEMPO BKN010
Conditions at: EBCI (CHARLEROI/GOSSEL, BE) observed 0850 UTC 23 January 2021
Temperature: 3.0°C (37°F)
Dewpoint: 1.0°C (34°F) [RH = 87%]
Pressure (altimeter): 29.38 inches Hg (995.0 mb)
Winds: from the SSW (200 degrees) at 10 MPH (9 knots; 4.6 m/s)
Visibility: 6 or more miles (10+ km)
Ceiling: 1200 feet AGL
Clouds: scattered clouds at 900 feet AGL
broken clouds at 1200 feet AGL
Weather: no significant weather observed at this time

METAR text: EBCI 230820Z 19009KT 9999 SCT009 BKN012 03/02 Q0996 TEMPO BKN010
Conditions at: EBCI (CHARLEROI/GOSSEL, BE) observed 0820 UTC 23 January 2021
Temperature: 3.0°C (37°F)
Dewpoint: 2.0°C (36°F) [RH = 93%]
Pressure (altimeter): 29.41 inches Hg (996.0 mb)
Winds: from the S (190 degrees) at 10 MPH (9 knots; 4.6 m/s)
Visibility: 6 or more miles (10+ km)
Ceiling: 1200 feet AGL
Clouds: scattered clouds at 900 feet AGL
broken clouds at 1200 feet AGL
Weather: no significant weather observed at this time

METAR text: EBCI 230750Z 20010KT 9999 SCT009 BKN012 03/02 Q0996 TEMPO BKN010
Conditions at: EBCI (CHARLEROI/GOSSEL, BE) observed 0750 UTC 23 January 2021
Temperature: 3.0°C (37°F)
Dewpoint: 2.0°C (36°F) [RH = 93%]
Pressure (altimeter): 29.41 inches Hg (996.0 mb)
Winds: from the SSW (200 degrees) at 12 MPH (10 knots; 5.1 m/s)
Visibility: 6 or more miles (10+ km)
Ceiling: 1200 feet AGL
Clouds: scattered clouds at 900 feet AGL
broken clouds at 1200 feet AGL
Weather: no significant weather observed at this time

METAR text: EBCI 230720Z 20010KT 9999 SCT008 BKN010 03/02 Q0996 TEMPO BKN008
Conditions at: EBCI (CHARLEROI/GOSSEL, BE) observed 0720 UTC 23 January 2021
Temperature: 3.0°C (37°F)
Dewpoint: 2.0°C (36°F) [RH = 93%]
Pressure (altimeter): 29.41 inches Hg (996.0 mb)
Winds: from the SSW (200 degrees) at 12 MPH (10 knots; 5.1 m/s)
Visibility: 6 or more miles (10+ km)
Ceiling: 1000 feet AGL
Clouds: scattered clouds at 800 feet AGL
broken clouds at 1000 feet AGL
Weather: no significant weather observed at this time

METAR text: EBCI 230650Z 20012KT 9999 SCT008 BKN010 03/02 Q0996 TEMPO BKN008
Conditions at: EBCI (CHARLEROI/GOSSEL, BE) observed 0650 UTC 23 January 2021
Temperature: 3.0°C (37°F)
Dewpoint: 2.0°C (36°F) [RH = 93%]
Pressure (altimeter): 29.41 inches Hg (996.0 mb)
Winds: from the SSW (200 degrees) at 14 MPH (12 knots; 6.2 m/s)
Visibility: 6 or more miles (10+ km)
Ceiling: 1000 feet AGL
Clouds: scattered clouds at 800 feet AGL
broken clouds at 1000 feet AGL
Weather: no significant weather observed at this time

METAR text: EBCI 230620Z 20010KT 9999 SCT008 BKN010 03/01 Q0996 TEMPO BKN008
Conditions at: EBCI (CHARLEROI/GOSSEL, BE) observed 0620 UTC 23 January 2021
Temperature: 3.0°C (37°F)
Dewpoint: 1.0°C (34°F) [RH = 87%]
Pressure (altimeter): 29.41 inches Hg (996.0 mb)
Winds: from the SSW (200 degrees) at 12 MPH (10 knots; 5.1 m/s)
Visibility: 6 or more miles (10+ km)
Ceiling: 1000 feet AGL
Clouds: scattered clouds at 800 feet AGL
broken clouds at 1000 feet AGL
Weather: no significant weather observed at this time

METAR text: EBCI 230550Z 20011KT 9999 BKN010 03/01 Q0995 TEMPO BKN008
Conditions at: EBCI (CHARLEROI/GOSSEL, BE) observed 0550 UTC 23 January 2021
Temperature: 3.0°C (37°F)
Dewpoint: 1.0°C (34°F) [RH = 87%]
Pressure (altimeter): 29.38 inches Hg (995.0 mb)
Winds: from the SSW (200 degrees) at 13 MPH (11 knots; 5.7 m/s)
Visibility: 6 or more miles (10+ km)
Ceiling: 1000 feet AGL
Clouds: broken clouds at 1000 feet AGL
Weather: no significant weather observed at this time

METAR text: EBCI 230520Z 20010KT 9999 FEW011 03/01 Q0996 TEMPO BKN011
Conditions at: EBCI (CHARLEROI/GOSSEL, BE) observed 0520 UTC 23 January 2021
Temperature: 3.0°C (37°F)
Dewpoint: 1.0°C (34°F) [RH = 87%]
Pressure (altimeter): 29.41 inches Hg (996.0 mb)
Winds: from the SSW (200 degrees) at 12 MPH (10 knots; 5.1 m/s)
Visibility: 6 or more miles (10+ km)
Ceiling: at least 12,000 feet AGL
Clouds: few clouds at 1100 feet AGL
Weather: no significant weather observed at this time

METAR text: EBCI 230450Z 21011KT 9999 SCT011 03/01 Q0996 TEMPO BKN011
Conditions at: EBCI (CHARLEROI/GOSSEL, BE) observed 0450 UTC 23 January 2021
Temperature: 3.0°C (37°F)
Dewpoint: 1.0°C (34°F) [RH = 87%]
Pressure (altimeter): 29.41 inches Hg (996.0 mb)
Winds: from the SSW (210 degrees) at 13 MPH (11 knots; 5.7 m/s)
Visibility: 6 or more miles (10+ km)
Ceiling: at least 12,000 feet AGL
Clouds: scattered clouds at 1100 feet AGL
Weather: no significant weather observed at this time

METAR text: EBCI 230420Z 21012KT 9999 BKN011 03/02 Q0996 NOSIG
Conditions at: EBCI (CHARLEROI/GOSSEL, BE) observed 0420 UTC 23 January 2021
Temperature: 3.0°C (37°F)
Dewpoint: 2.0°C (36°F) [RH = 93%]
Pressure (altimeter): 29.41 inches Hg (996.0 mb)
Winds: from the SSW (210 degrees) at 14 MPH (12 knots; 6.2 m/s)
Visibility: 6 or more miles (10+ km)
Ceiling: 1100 feet AGL
Clouds: broken clouds at 1100 feet AGL
Weather: no significant weather observed at this time

METAR text: EBCI 230350Z 20011KT 9999 BKN011 03/02 Q0996 NOSIG
Conditions at: EBCI (CHARLEROI/GOSSEL, BE) observed 0350 UTC 23 January 2021
Temperature: 3.0°C (37°F)
Dewpoint: 2.0°C (36°F) [RH = 93%]
Pressure (altimeter): 29.41 inches Hg (996.0 mb)
Winds: from the SSW (200 degrees) at 13 MPH (11 knots; 5.7 m/s)
Visibility: 6 or more miles (10+ km)
Ceiling: 1100 feet AGL
Clouds: broken clouds at 1100 feet AGL
Weather: no significant weather observed at this time

METAR text: EBCI 230320Z 20009KT 9999 BKN012 03/02 Q0996 NOSIG
Conditions at: EBCI (CHARLEROI/GOSSEL, BE) observed 0320 UTC 23 January 2021
Temperature: 3.0°C (37°F)
Dewpoint: 2.0°C (36°F) [RH = 93%]
Pressure (altimeter): 29.41 inches Hg (996.0 mb)
Winds: from the SSW (200 degrees) at 10 MPH (9 knots; 4.6 m/s)
Visibility: 6 or more miles (10+ km)
Ceiling: 1200 feet AGL
Clouds: broken clouds at 1200 feet AGL
Weather: no significant weather observed at this time

METAR text: EBCI 230250Z 20008KT 9999 BKN012 04/02 Q0996 NOSIG
Conditions at: EBCI (CHARLEROI/GOSSEL, BE) observed 0250 UTC 23 January 2021
Temperature: 4.0°C (39°F)
Dewpoint: 2.0°C (36°F) [RH = 87%]
Pressure (altimeter): 29.41 inches Hg (996.0 mb)
Winds: from the SSW (200 degrees) at 9 MPH (8 knots; 4.1 m/s)
Visibility: 6 or more miles (10+ km)
Ceiling: 1200 feet AGL
Clouds: broken clouds at 1200 feet AGL
Weather: no significant weather observed at this time

METAR text: EBCI 230220Z 21009KT 9999 BKN013 03/02 Q0996 NOSIG
Conditions at: EBCI (CHARLEROI/GOSSEL, BE) observed 0220 UTC 23 January 2021
Temperature: 3.0°C (37°F)
Dewpoint: 2.0°C (36°F) [RH = 93%]
Pressure (altimeter): 29.41 inches Hg (996.0 mb)
Winds: from the SSW (210 degrees) at 10 MPH (9 knots; 4.6 m/s)
Visibility: 6 or more miles (10+ km)
Ceiling: 1300 feet AGL
Clouds: broken clouds at 1300 feet AGL
Weather: no significant weather observed at this time

METAR text: EBCI 230150Z 20010KT 9999 -SHRA SCT020 BKN042 03/02 Q0996 NOSIG
Conditions at: EBCI (CHARLEROI/GOSSEL, BE) observed 0150 UTC 23 January 2021
Temperature: 3.0°C (37°F)
Dewpoint: 2.0°C (36°F) [RH = 93%]
Pressure (altimeter): 29.41 inches Hg (996.0 mb)
Winds: from the SSW (200 degrees) at 12 MPH (10 knots; 5.1 m/s)
Visibility: 6 or more miles (10+ km)
Ceiling: 4200 feet AGL
Clouds: scattered clouds at 2000 feet AGL
broken clouds at 4200 feet AGL
Weather: -SHRA  (light rain showers)

METAR text: EBCI 230120Z 20010KT 9999 FEW024 BKN042 03/02 Q0996 NOSIG
Conditions at: EBCI (CHARLEROI/GOSSEL, BE) observed 0120 UTC 23 January 2021
Temperature: 3.0°C (37°F)
Dewpoint: 2.0°C (36°F) [RH = 93%]
Pressure (altimeter): 29.41 inches Hg (996.0 mb)
Winds: from the SSW (200 degrees) at 12 MPH (10 knots; 5.1 m/s)
Visibility: 6 or more miles (10+ km)
Ceiling: 4200 feet AGL
Clouds: few clouds at 2400 feet AGL
broken clouds at 4200 feet AGL
Weather: no significant weather observed at this time

Forecast for: EBCI (CHARLEROI/GOSSEL, BE)
Text: TAF EBCI 241110Z 2412/2518 16006KT 9999 FEW020
Forecast period: 1200 to 1600 UTC 24 January 2021
Forecast type: FROM: standard forecast or significant change
Winds: from the SSE (160 degrees) at 7 MPH (6 knots; 3.1 m/s)
Visibility: 6 or more miles (10+ km)
Ceiling: at least 12,000 feet AGL
Clouds: few clouds at 2000 feet AGL
Weather: no significant weather forecast for this period
Text: BECMG 2416/2418 SCT006 BKN012
Forecast period: 1600 UTC 24 January 2021 to 0900 UTC 25 January 2021
Forecast type: BECOMING: Conditions expected to become as follows by 1800 UTC 24 January 2021
Winds: from the SSE (160 degrees) at 7 MPH (6 knots; 3.1 m/s)
Visibility: 6 or more miles (10+ km)
Ceiling: 1200 feet AGL
Clouds: scattered clouds at 600 feet AGL
broken clouds at 1200 feet AGL
Weather: no significant weather forecast for this period
Text: TEMPO 2418/2509 2500 -SN BKN004
Forecast period: 1800 UTC 24 January 2021 to 0900 UTC 25 January 2021
Forecast type: TEMPORARY: The following changes expected for less than half the time period
Visibility: 1.55 miles (2.49 km)
Ceiling: 400 feet AGL
Clouds: broken clouds at 400 feet AGL
Weather: -SN  (light snow)
Text: PROB40
Forecast period: 1800 UTC 24 January 2021 to 0400 UTC 25 January 2021
Forecast type: TEMPORARY: The following changes expected for less than half the time period
Visibility: 0.37 miles (0.60 km)
Ceiling: 200 feet AGL
Clouds: broken clouds at 200 feet AGL
Weather: SN  (moderate snow)
Text: TEMPO 2418/2504 0600 SN BKN002
Forecast period: 0900 to 1800 UTC 25 January 2021
Forecast type: BECOMING: Conditions expected to become as follows by 1100 UTC 25 January 2021
Winds: from the SSE (160 degrees) at 7 MPH (6 knots; 3.1 m/s)
Visibility: 6 or more miles (10+ km)
Ceiling: at least 12,000 feet AGL
Clouds: scattered clouds at 1000 feet AGL
scattered clouds at 3500 feet AGL
Weather: no significant weather forecast for this period